sensor_id;sensor_type;location;lat;lon;timestamp;temperature;humidity
48978;DHT22;34793;48.940;2.618;2023-03-01T00:00:53;7.20;60.80
48978;DHT22;34793;48.940;2.618;2023-03-01T00:03:19;7.20;61.00
48978;DHT22;34793;48.940;2.618;2023-03-01T00:05:45;7.10;60.90
48978;DHT22;34793;48.940;2.618;2023-03-01T00:08:10;6.90;61.80
48978;DHT22;34793;48.940;2.618;2023-03-01T00:10:36;6.80;61.70
48978;DHT22;34793;48.940;2.618;2023-03-01T00:13:02;6.80;61.90
48978;DHT22;34793;48.940;2.618;2023-03-01T00:15:27;6.80;61.80
48978;DHT22;34793;48.940;2.618;2023-03-01T00:17:53;6.70;62.20
48978;DHT22;34793;48.940;2.618;2023-03-01T00:20:18;6.50;62.80
48978;DHT22;34793;48.940;2.618;2023-03-01T00:22:44;6.60;62.70
48978;DHT22;34793;48.940;2.618;2023-03-01T00:25:10;6.70;62.50
48978;DHT22;34793;48.940;2.618;2023-03-01T00:27:35;6.80;62.60
48978;DHT22;34793;48.940;2.618;2023-03-01T00:30:01;6.80;62.40
48978;DHT22;34793;48.940;2.618;2023-03-01T00:32:26;6.70;62.20
48978;DHT22;34793;48.940;2.618;2023-03-01T00:34:52;6.70;62.20
48978;DHT22;34793;48.940;2.618;2023-03-01T00:37:21;6.60;62.40
48978;DHT22;34793;48.940;2.618;2023-03-01T00:39:48;6.60;62.40
48978;DHT22;34793;48.940;2.618;2023-03-01T00:42:13;6.50;62.80
48978;DHT22;34793;48.940;2.618;2023-03-01T00:44:39;6.70;62.60
48978;DHT22;34793;48.940;2.618;2023-03-01T00:47:05;6.80;62.40
48978;DHT22;34793;48.940;2.618;2023-03-01T00:49:30;6.90;61.80
48978;DHT22;34793;48.940;2.618;2023-03-01T00:51:56;7.00;61.40
48978;DHT22;34793;48.940;2.618;2023-03-01T00:54:21;7.00;61.60
48978;DHT22;34793;48.940;2.618;2023-03-01T00:56:47;6.90;61.90
48978;DHT22;34793;48.940;2.618;2023-03-01T00:59:12;6.80;61.90
48978;DHT22;34793;48.940;2.618;2023-03-01T01:01:38;6.90;62.10
48978;DHT22;34793;48.940;2.618;2023-03-01T01:04:04;6.90;62.00
48978;DHT22;34793;48.940;2.618;2023-03-01T01:06:49;6.80;62.10
48978;DHT22;34793;48.940;2.618;2023-03-01T01:09:15;7.10;61.80
48978;DHT22;34793;48.940;2.618;2023-03-01T01:11:48;7.20;61.70
48978;DHT22;34793;48.940;2.618;2023-03-01T01:14:14;7.40;61.20
48978;DHT22;34793;48.940;2.618;2023-03-01T01:16:40;7.40;61.10
48978;DHT22;34793;48.940;2.618;2023-03-01T01:19:06;7.60;60.40
48978;DHT22;34793;48.940;2.618;2023-03-01T01:21:31;7.80;59.60
48978;DHT22;34793;48.940;2.618;2023-03-01T01:23:57;7.80;60.40
48978;DHT22;34793;48.940;2.618;2023-03-01T01:26:27;7.50;60.60
48978;DHT22;34793;48.940;2.618;2023-03-01T01:28:53;7.50;60.70
48978;DHT22;34793;48.940;2.618;2023-03-01T01:31:18;7.30;60.80
48978;DHT22;34793;48.940;2.618;2023-03-01T01:33:44;7.20;61.30
48978;DHT22;34793;48.940;2.618;2023-03-01T01:36:10;7.20;61.20
48978;DHT22;34793;48.940;2.618;2023-03-01T01:38:36;7.00;61.70
48978;DHT22;34793;48.940;2.618;2023-03-01T01:41:02;6.90;62.10
48978;DHT22;34793;48.940;2.618;2023-03-01T01:43:29;6.80;62.20
48978;DHT22;34793;48.940;2.618;2023-03-01T01:45:56;7.00;62.30
48978;DHT22;34793;48.940;2.618;2023-03-01T01:48:26;7.20;62.00
48978;DHT22;34793;48.940;2.618;2023-03-01T01:51:06;7.30;61.40
48978;DHT22;34793;48.940;2.618;2023-03-01T01:53:32;7.10;61.90
48978;DHT22;34793;48.940;2.618;2023-03-01T01:55:58;6.90;62.30
48978;DHT22;34793;48.940;2.618;2023-03-01T01:58:26;6.80;62.50
48978;DHT22;34793;48.940;2.618;2023-03-01T02:00:53;6.80;62.20
48978;DHT22;34793;48.940;2.618;2023-03-01T02:03:23;6.90;62.80
48978;DHT22;34793;48.940;2.618;2023-03-01T02:08:16;6.90;62.30
48978;DHT22;34793;48.940;2.618;2023-03-01T02:10:42;7.00;62.00
48978;DHT22;34793;48.940;2.618;2023-03-01T02:13:08;6.90;62.30
48978;DHT22;34793;48.940;2.618;2023-03-01T02:15:34;6.70;62.70
48978;DHT22;34793;48.940;2.618;2023-03-01T02:18:00;6.80;62.30
48978;DHT22;34793;48.940;2.618;2023-03-01T02:22:51;7.00;62.30
48978;DHT22;34793;48.940;2.618;2023-03-01T02:25:24;6.70;62.80
48978;DHT22;34793;48.940;2.618;2023-03-01T02:30:31;6.40;63.40
48978;DHT22;34793;48.940;2.618;2023-03-01T02:32:57;6.50;62.80
48978;DHT22;34793;48.940;2.618;2023-03-01T02:35:34;6.50;62.90
48978;DHT22;34793;48.940;2.618;2023-03-01T02:38:01;6.50;63.10
48978;DHT22;34793;48.940;2.618;2023-03-01T02:40:28;6.40;62.70
48978;DHT22;34793;48.940;2.618;2023-03-01T02:42:55;6.30;63.70
48978;DHT22;34793;48.940;2.618;2023-03-01T02:45:21;6.50;63.30
48978;DHT22;34793;48.940;2.618;2023-03-01T02:47:48;6.40;63.20
48978;DHT22;34793;48.940;2.618;2023-03-01T02:55:20;6.40;63.50
48978;DHT22;34793;48.940;2.618;2023-03-01T02:57:46;6.50;63.00
48978;DHT22;34793;48.940;2.618;2023-03-01T03:00:20;6.20;63.70
48978;DHT22;34793;48.940;2.618;2023-03-01T03:02:47;6.30;63.70
48978;DHT22;34793;48.940;2.618;2023-03-01T03:05:14;6.30;63.20
48978;DHT22;34793;48.940;2.618;2023-03-01T03:07:41;6.40;63.50
48978;DHT22;34793;48.940;2.618;2023-03-01T03:10:09;6.40;63.20
48978;DHT22;34793;48.940;2.618;2023-03-01T03:12:36;6.30;63.50
48978;DHT22;34793;48.940;2.618;2023-03-01T03:15:02;6.50;63.40
48978;DHT22;34793;48.940;2.618;2023-03-01T03:17:48;6.30;63.60
48978;DHT22;34793;48.940;2.618;2023-03-01T03:20:27;6.50;63.20
48978;DHT22;34793;48.940;2.618;2023-03-01T03:22:54;6.30;63.30
48978;DHT22;34793;48.940;2.618;2023-03-01T03:25:21;6.10;63.60
48978;DHT22;34793;48.940;2.618;2023-03-01T03:27:47;6.20;63.90
48978;DHT22;34793;48.940;2.618;2023-03-01T03:30:14;6.00;63.90
48978;DHT22;34793;48.940;2.618;2023-03-01T03:32:41;6.20;64.10
48978;DHT22;34793;48.940;2.618;2023-03-01T03:35:08;5.90;64.90
48978;DHT22;34793;48.940;2.618;2023-03-01T03:37:38;5.80;65.40
48978;DHT22;34793;48.940;2.618;2023-03-01T03:40:22;5.70;65.20
48978;DHT22;34793;48.940;2.618;2023-03-01T03:42:48;5.80;65.10
48978;DHT22;34793;48.940;2.618;2023-03-01T03:45:14;5.80;65.50
48978;DHT22;34793;48.940;2.618;2023-03-01T03:47:39;5.80;65.30
48978;DHT22;34793;48.940;2.618;2023-03-01T03:50:05;7.20;66.00
48978;DHT22;34793;48.940;2.618;2023-03-01T03:52:30;5.90;65.00
48978;DHT22;34793;48.940;2.618;2023-03-01T03:54:56;5.80;64.70
48978;DHT22;34793;48.940;2.618;2023-03-01T03:57:21;5.90;65.10
48978;DHT22;34793;48.940;2.618;2023-03-01T03:59:47;5.70;65.40
48978;DHT22;34793;48.940;2.618;2023-03-01T04:02:12;5.70;65.60
48978;DHT22;34793;48.940;2.618;2023-03-01T04:04:47;5.60;65.80
48978;DHT22;34793;48.940;2.618;2023-03-01T04:10:06;5.60;66.10
48978;DHT22;34793;48.940;2.618;2023-03-01T04:12:32;5.40;66.70
48978;DHT22;34793;48.940;2.618;2023-03-01T04:14:59;5.50;66.40
48978;DHT22;34793;48.940;2.618;2023-03-01T04:17:25;5.40;67.20
48978;DHT22;34793;48.940;2.618;2023-03-01T04:19:50;5.50;66.30
48978;DHT22;34793;48.940;2.618;2023-03-01T04:22:16;5.60;66.00
48978;DHT22;34793;48.940;2.618;2023-03-01T04:24:43;5.50;66.70
48978;DHT22;34793;48.940;2.618;2023-03-01T04:27:09;5.50;66.40
48978;DHT22;34793;48.940;2.618;2023-03-01T04:29:35;5.60;66.20
48978;DHT22;34793;48.940;2.618;2023-03-01T04:32:00;5.60;65.80
48978;DHT22;34793;48.940;2.618;2023-03-01T04:34:26;5.60;66.40
48978;DHT22;34793;48.940;2.618;2023-03-01T04:36:52;5.30;67.00
48978;DHT22;34793;48.940;2.618;2023-03-01T04:39:17;5.30;67.00
48978;DHT22;34793;48.940;2.618;2023-03-01T04:41:43;5.40;67.30
48978;DHT22;34793;48.940;2.618;2023-03-01T04:44:09;5.40;67.10
48978;DHT22;34793;48.940;2.618;2023-03-01T04:46:34;5.60;66.60
48978;DHT22;34793;48.940;2.618;2023-03-01T04:49:00;5.70;66.10
48978;DHT22;34793;48.940;2.618;2023-03-01T04:51:25;5.70;65.80
48978;DHT22;34793;48.940;2.618;2023-03-01T04:53:51;5.80;65.80
48978;DHT22;34793;48.940;2.618;2023-03-01T04:56:17;6.10;65.90
48978;DHT22;34793;48.940;2.618;2023-03-01T04:58:45;6.10;65.30
48978;DHT22;34793;48.940;2.618;2023-03-01T05:01:12;6.20;64.80
48978;DHT22;34793;48.940;2.618;2023-03-01T05:03:43;6.00;64.70
48978;DHT22;34793;48.940;2.618;2023-03-01T05:06:09;5.80;65.20
48978;DHT22;34793;48.940;2.618;2023-03-01T05:08:36;5.70;65.10
48978;DHT22;34793;48.940;2.618;2023-03-01T05:11:02;5.70;65.00
48978;DHT22;34793;48.940;2.618;2023-03-01T05:13:27;5.80;65.50
48978;DHT22;34793;48.940;2.618;2023-03-01T05:15:55;5.60;65.90
48978;DHT22;34793;48.940;2.618;2023-03-01T05:18:21;5.80;65.50
48978;DHT22;34793;48.940;2.618;2023-03-01T05:20:51;5.80;65.70
48978;DHT22;34793;48.940;2.618;2023-03-01T05:23:17;5.70;65.90
48978;DHT22;34793;48.940;2.618;2023-03-01T05:25:43;5.70;65.70
48978;DHT22;34793;48.940;2.618;2023-03-01T05:28:10;5.80;65.50
48978;DHT22;34793;48.940;2.618;2023-03-01T05:30:36;5.50;66.70
48978;DHT22;34793;48.940;2.618;2023-03-01T05:33:04;5.40;66.70
48978;DHT22;34793;48.940;2.618;2023-03-01T05:35:32;5.30;66.60
48978;DHT22;34793;48.940;2.618;2023-03-01T05:37:58;5.20;67.50
48978;DHT22;34793;48.940;2.618;2023-03-01T05:40:23;5.30;67.70
48978;DHT22;34793;48.940;2.618;2023-03-01T05:45:15;5.70;65.80
48978;DHT22;34793;48.940;2.618;2023-03-01T05:47:41;5.80;65.20
48978;DHT22;34793;48.940;2.618;2023-03-01T05:50:10;5.80;65.30
48978;DHT22;34793;48.940;2.618;2023-03-01T05:52:36;5.70;65.40
48978;DHT22;34793;48.940;2.618;2023-03-01T05:55:01;5.70;65.90
48978;DHT22;34793;48.940;2.618;2023-03-01T05:57:28;5.70;66.40
48978;DHT22;34793;48.940;2.618;2023-03-01T05:59:54;5.70;66.00
48978;DHT22;34793;48.940;2.618;2023-03-01T06:02:19;5.40;66.60
48978;DHT22;34793;48.940;2.618;2023-03-01T06:04:45;5.40;67.20
48978;DHT22;34793;48.940;2.618;2023-03-01T06:07:10;5.40;66.90
48978;DHT22;34793;48.940;2.618;2023-03-01T06:09:36;5.30;66.70
48978;DHT22;34793;48.940;2.618;2023-03-01T06:12:01;5.30;67.60
48978;DHT22;34793;48.940;2.618;2023-03-01T06:14:27;5.20;68.10
48978;DHT22;34793;48.940;2.618;2023-03-01T06:16:53;5.10;67.70
48978;DHT22;34793;48.940;2.618;2023-03-01T06:19:18;5.20;67.50
48978;DHT22;34793;48.940;2.618;2023-03-01T06:21:44;5.20;67.00
48978;DHT22;34793;48.940;2.618;2023-03-01T06:24:09;5.30;67.10
48978;DHT22;34793;48.940;2.618;2023-03-01T06:26:35;5.40;66.80
48978;DHT22;34793;48.940;2.618;2023-03-01T06:29:00;5.40;66.70
48978;DHT22;34793;48.940;2.618;2023-03-01T06:31:26;5.40;66.50
48978;DHT22;34793;48.940;2.618;2023-03-01T06:33:51;5.20;67.90
48978;DHT22;34793;48.940;2.618;2023-03-01T06:36:17;5.00;68.90
48978;DHT22;34793;48.940;2.618;2023-03-01T06:38:53;4.90;68.80
48978;DHT22;34793;48.940;2.618;2023-03-01T06:41:18;5.00;67.90
48978;DHT22;34793;48.940;2.618;2023-03-01T06:43:44;5.10;67.80
48978;DHT22;34793;48.940;2.618;2023-03-01T06:46:09;5.10;68.20
48978;DHT22;34793;48.940;2.618;2023-03-01T06:48:35;5.20;68.60
48978;DHT22;34793;48.940;2.618;2023-03-01T06:51:01;5.20;68.20
48978;DHT22;34793;48.940;2.618;2023-03-01T06:53:27;5.00;69.30
48978;DHT22;34793;48.940;2.618;2023-03-01T06:55:56;5.00;69.50
48978;DHT22;34793;48.940;2.618;2023-03-01T06:58:21;5.00;69.40
48978;DHT22;34793;48.940;2.618;2023-03-01T07:00:47;5.00;69.30
48978;DHT22;34793;48.940;2.618;2023-03-01T07:03:12;5.10;69.40
48978;DHT22;34793;48.940;2.618;2023-03-01T07:05:38;5.00;69.20
48978;DHT22;34793;48.940;2.618;2023-03-01T07:08:03;5.00;69.80
48978;DHT22;34793;48.940;2.618;2023-03-01T07:10:29;4.90;70.20
48978;DHT22;34793;48.940;2.618;2023-03-01T07:12:55;5.20;69.50
48978;DHT22;34793;48.940;2.618;2023-03-01T07:15:21;5.20;69.40
48978;DHT22;34793;48.940;2.618;2023-03-01T07:17:46;5.30;69.20
48978;DHT22;34793;48.940;2.618;2023-03-01T07:20:15;5.30;69.60
48978;DHT22;34793;48.940;2.618;2023-03-01T07:22:41;5.20;69.60
48978;DHT22;34793;48.940;2.618;2023-03-01T07:25:07;5.40;69.20
48978;DHT22;34793;48.940;2.618;2023-03-01T07:27:33;5.60;68.80
48978;DHT22;34793;48.940;2.618;2023-03-01T07:29:59;5.60;68.70
48978;DHT22;34793;48.940;2.618;2023-03-01T07:32:24;5.60;69.00
48978;DHT22;34793;48.940;2.618;2023-03-01T07:34:50;5.60;69.00
48978;DHT22;34793;48.940;2.618;2023-03-01T07:37:16;5.40;69.30
48978;DHT22;34793;48.940;2.618;2023-03-01T07:39:41;5.50;69.40
48978;DHT22;34793;48.940;2.618;2023-03-01T07:42:07;5.60;69.40
48978;DHT22;34793;48.940;2.618;2023-03-01T07:44:33;5.40;69.70
48978;DHT22;34793;48.940;2.618;2023-03-01T07:47:00;5.30;69.70
48978;DHT22;34793;48.940;2.618;2023-03-01T07:49:25;5.30;70.00
48978;DHT22;34793;48.940;2.618;2023-03-01T07:51:54;5.30;70.30
48978;DHT22;34793;48.940;2.618;2023-03-01T07:54:20;5.30;70.50
48978;DHT22;34793;48.940;2.618;2023-03-01T07:56:45;5.40;70.80
48978;DHT22;34793;48.940;2.618;2023-03-01T07:59:11;5.50;70.50
48978;DHT22;34793;48.940;2.618;2023-03-01T08:01:36;5.60;70.20
48978;DHT22;34793;48.940;2.618;2023-03-01T08:04:02;5.60;70.40
48978;DHT22;34793;48.940;2.618;2023-03-01T08:06:27;5.40;70.80
48978;DHT22;34793;48.940;2.618;2023-03-01T08:08:53;5.60;70.60
48978;DHT22;34793;48.940;2.618;2023-03-01T08:11:20;5.60;70.40
48978;DHT22;34793;48.940;2.618;2023-03-01T08:13:49;5.70;70.10
48978;DHT22;34793;48.940;2.618;2023-03-01T08:16:15;6.00;70.50
48978;DHT22;34793;48.940;2.618;2023-03-01T08:18:41;5.80;69.40
48978;DHT22;34793;48.940;2.618;2023-03-01T08:21:11;5.70;70.40
48978;DHT22;34793;48.940;2.618;2023-03-01T08:23:37;5.80;70.40
48978;DHT22;34793;48.940;2.618;2023-03-01T08:26:07;5.90;69.20
48978;DHT22;34793;48.940;2.618;2023-03-01T08:28:33;5.80;69.80
48978;DHT22;34793;48.940;2.618;2023-03-01T08:30:58;5.80;69.90
48978;DHT22;34793;48.940;2.618;2023-03-01T08:33:24;5.90;70.00
48978;DHT22;34793;48.940;2.618;2023-03-01T08:35:50;5.80;70.20
48978;DHT22;34793;48.940;2.618;2023-03-01T08:38:15;5.80;69.70
48978;DHT22;34793;48.940;2.618;2023-03-01T08:40:41;5.70;70.00
48978;DHT22;34793;48.940;2.618;2023-03-01T08:43:06;6.30;70.50
48978;DHT22;34793;48.940;2.618;2023-03-01T08:45:32;6.00;69.60
48978;DHT22;34793;48.940;2.618;2023-03-01T08:47:57;6.40;68.70
48978;DHT22;34793;48.940;2.618;2023-03-01T08:50:23;6.20;68.70
48978;DHT22;34793;48.940;2.618;2023-03-01T08:52:50;6.20;69.10
48978;DHT22;34793;48.940;2.618;2023-03-01T08:55:15;6.30;68.50
48978;DHT22;34793;48.940;2.618;2023-03-01T08:57:42;6.40;68.50
48978;DHT22;34793;48.940;2.618;2023-03-01T09:00:08;6.50;68.10
48978;DHT22;34793;48.940;2.618;2023-03-01T09:02:34;6.50;68.50
48978;DHT22;34793;48.940;2.618;2023-03-01T09:05:00;6.70;67.80
48978;DHT22;34793;48.940;2.618;2023-03-01T09:07:26;6.80;67.70
48978;DHT22;34793;48.940;2.618;2023-03-01T09:09:53;6.90;67.40
48978;DHT22;34793;48.940;2.618;2023-03-01T09:12:19;6.90;67.00
48978;DHT22;34793;48.940;2.618;2023-03-01T09:14:45;7.10;66.80
48978;DHT22;34793;48.940;2.618;2023-03-01T09:17:10;7.20;66.60
48978;DHT22;34793;48.940;2.618;2023-03-01T09:19:36;7.20;66.60
48978;DHT22;34793;48.940;2.618;2023-03-01T09:22:02;7.10;66.40
48978;DHT22;34793;48.940;2.618;2023-03-01T09:24:28;7.30;66.60
48978;DHT22;34793;48.940;2.618;2023-03-01T09:26:54;7.50;66.40
48978;DHT22;34793;48.940;2.618;2023-03-01T09:29:20;7.70;65.70
48978;DHT22;34793;48.940;2.618;2023-03-01T09:31:46;7.80;65.90
48978;DHT22;34793;48.940;2.618;2023-03-01T09:34:12;8.00;64.80
48978;DHT22;34793;48.940;2.618;2023-03-01T09:36:40;7.90;65.00
48978;DHT22;34793;48.940;2.618;2023-03-01T09:39:06;7.90;65.00
48978;DHT22;34793;48.940;2.618;2023-03-01T09:44:01;8.30;64.00
48978;DHT22;34793;48.940;2.618;2023-03-01T09:46:29;8.20;64.40
48978;DHT22;34793;48.940;2.618;2023-03-01T09:48:58;8.00;64.60
48978;DHT22;34793;48.940;2.618;2023-03-01T09:51:27;8.10;64.80
48978;DHT22;34793;48.940;2.618;2023-03-01T09:53:54;8.20;64.90
48978;DHT22;34793;48.940;2.618;2023-03-01T09:56:30;8.40;64.30
48978;DHT22;34793;48.940;2.618;2023-03-01T10:06:35;8.70;64.10
48978;DHT22;34793;48.940;2.618;2023-03-01T10:09:19;8.80;63.30
48978;DHT22;34793;48.940;2.618;2023-03-01T10:11:48;9.00;64.60
48978;DHT22;34793;48.940;2.618;2023-03-01T10:17:02;9.10;63.50
48978;DHT22;34793;48.940;2.618;2023-03-01T10:19:41;9.20;62.40
48978;DHT22;34793;48.940;2.618;2023-03-01T10:22:15;9.00;62.40
48978;DHT22;34793;48.940;2.618;2023-03-01T10:24:41;9.20;62.40
48978;DHT22;34793;48.940;2.618;2023-03-01T10:32:36;9.20;62.30
48978;DHT22;34793;48.940;2.618;2023-03-01T10:35:14;9.40;61.70
48978;DHT22;34793;48.940;2.618;2023-03-01T10:37:46;9.40;62.80
48978;DHT22;34793;48.940;2.618;2023-03-01T10:40:21;9.50;61.80
48978;DHT22;34793;48.940;2.618;2023-03-01T10:42:48;9.50;62.80
48978;DHT22;34793;48.940;2.618;2023-03-01T10:45:27;9.50;62.40
48978;DHT22;34793;48.940;2.618;2023-03-01T10:50:29;10.40;61.70
48978;DHT22;34793;48.940;2.618;2023-03-01T10:52:57;10.90;61.80
48978;DHT22;34793;48.940;2.618;2023-03-01T10:55:24;10.90;61.30
48978;DHT22;34793;48.940;2.618;2023-03-01T10:58:05;11.30;60.70
48978;DHT22;34793;48.940;2.618;2023-03-01T11:00:31;11.50;60.70
48978;DHT22;34793;48.940;2.618;2023-03-01T11:05:23;12.00;59.80
48978;DHT22;34793;48.940;2.618;2023-03-01T11:07:51;12.00;58.70
48978;DHT22;34793;48.940;2.618;2023-03-01T11:10:27;12.20;58.90
48978;DHT22;34793;48.940;2.618;2023-03-01T11:12:53;12.50;58.80
48978;DHT22;34793;48.940;2.618;2023-03-01T11:15:28;12.90;58.00
48978;DHT22;34793;48.940;2.618;2023-03-01T11:17:54;13.10;57.70
48978;DHT22;34793;48.940;2.618;2023-03-01T11:20:24;13.20;56.10
48978;DHT22;34793;48.940;2.618;2023-03-01T11:25:17;13.50;55.90
48978;DHT22;34793;48.940;2.618;2023-03-01T11:27:44;13.70;56.50
48978;DHT22;34793;48.940;2.618;2023-03-01T11:33:17;13.90;55.50
48978;DHT22;34793;48.940;2.618;2023-03-01T11:35:49;14.10;56.10
48978;DHT22;34793;48.940;2.618;2023-03-01T11:38:26;14.10;54.70
48978;DHT22;34793;48.940;2.618;2023-03-01T11:46:20;14.20;53.90
48978;DHT22;34793;48.940;2.618;2023-03-01T11:54:06;14.10;54.00
48978;DHT22;34793;48.940;2.618;2023-03-01T11:56:43;14.10;54.20
48978;DHT22;34793;48.940;2.618;2023-03-01T12:01:51;13.80;55.60
48978;DHT22;34793;48.940;2.618;2023-03-01T12:09:25;14.30;55.50
48978;DHT22;34793;48.940;2.618;2023-03-01T12:12:20;14.10;54.50
48978;DHT22;34793;48.940;2.618;2023-03-01T12:28:07;13.90;54.60
48978;DHT22;34793;48.940;2.618;2023-03-01T12:33:04;13.90;54.90
48978;DHT22;34793;48.940;2.618;2023-03-01T12:48:17;14.30;54.60
48978;DHT22;34793;48.940;2.618;2023-03-01T12:50:50;13.90;54.50
48978;DHT22;34793;48.940;2.618;2023-03-01T12:53:24;13.80;54.70
48978;DHT22;34793;48.940;2.618;2023-03-01T12:55:50;13.40;55.50
48978;DHT22;34793;48.940;2.618;2023-03-01T13:01:21;13.80;56.10
48978;DHT22;34793;48.940;2.618;2023-03-01T13:06:10;13.80;55.30
48978;DHT22;34793;48.940;2.618;2023-03-01T13:08:42;13.50;54.50
48978;DHT22;34793;48.940;2.618;2023-03-01T13:11:16;13.40;55.30
48978;DHT22;34793;48.940;2.618;2023-03-01T13:13:43;13.70;55.00
48978;DHT22;34793;48.940;2.618;2023-03-01T13:21:41;13.80;55.00
48978;DHT22;34793;48.940;2.618;2023-03-01T13:27:09;14.10;54.60
48978;DHT22;34793;48.940;2.618;2023-03-01T13:32:34;14.40;54.50
48978;DHT22;34793;48.940;2.618;2023-03-01T13:37:40;14.40;54.50
48978;DHT22;34793;48.940;2.618;2023-03-01T13:42:52;13.90;54.40
48978;DHT22;34793;48.940;2.618;2023-03-01T13:47:49;13.80;55.50
48978;DHT22;34793;48.940;2.618;2023-03-01T13:50:20;14.00;55.50
48978;DHT22;34793;48.940;2.618;2023-03-01T13:52:50;13.90;55.30
48978;DHT22;34793;48.940;2.618;2023-03-01T13:57:44;14.20;54.60
48978;DHT22;34793;48.940;2.618;2023-03-01T14:03:14;13.80;55.20
48978;DHT22;34793;48.940;2.618;2023-03-01T14:05:41;14.00;55.00
48978;DHT22;34793;48.940;2.618;2023-03-01T14:08:18;13.80;54.40
48978;DHT22;34793;48.940;2.618;2023-03-01T14:11:09;13.60;55.00
48978;DHT22;34793;48.940;2.618;2023-03-01T14:13:48;13.30;55.40
48978;DHT22;34793;48.940;2.618;2023-03-01T14:21:27;13.70;55.80
48978;DHT22;34793;48.940;2.618;2023-03-01T14:23:52;13.70;55.20
48978;DHT22;34793;48.940;2.618;2023-03-01T14:26:21;13.70;55.30
48978;DHT22;34793;48.940;2.618;2023-03-01T14:28:47;13.70;55.00
48978;DHT22;34793;48.940;2.618;2023-03-01T14:33:58;13.50;55.20
48978;DHT22;34793;48.940;2.618;2023-03-01T14:36:28;13.70;54.60
48978;DHT22;34793;48.940;2.618;2023-03-01T14:38:54;13.60;55.10
48978;DHT22;34793;48.940;2.618;2023-03-01T14:41:23;13.80;54.40
48978;DHT22;34793;48.940;2.618;2023-03-01T14:43:49;13.90;54.50
48978;DHT22;34793;48.940;2.618;2023-03-01T14:48:44;14.00;55.20
48978;DHT22;34793;48.940;2.618;2023-03-01T14:51:10;14.00;54.80
48978;DHT22;34793;48.940;2.618;2023-03-01T14:56:43;13.80;55.40
48978;DHT22;34793;48.940;2.618;2023-03-01T14:59:10;13.90;54.80
48978;DHT22;34793;48.940;2.618;2023-03-01T15:01:36;13.80;55.10
48978;DHT22;34793;48.940;2.618;2023-03-01T15:04:01;13.90;55.40
48978;DHT22;34793;48.940;2.618;2023-03-01T15:06:27;13.80;55.10
48978;DHT22;34793;48.940;2.618;2023-03-01T15:08:53;13.70;55.10
48978;DHT22;34793;48.940;2.618;2023-03-01T15:11:21;13.40;54.90
48978;DHT22;34793;48.940;2.618;2023-03-01T15:13:48;13.60;55.10
48978;DHT22;34793;48.940;2.618;2023-03-01T15:16:15;13.70;55.10
48978;DHT22;34793;48.940;2.618;2023-03-01T15:18:45;13.60;55.20
48978;DHT22;34793;48.940;2.618;2023-03-01T15:23:47;13.30;55.60
48978;DHT22;34793;48.940;2.618;2023-03-01T15:26:21;13.70;55.50
48978;DHT22;34793;48.940;2.618;2023-03-01T15:28:52;13.60;55.20
48978;DHT22;34793;48.940;2.618;2023-03-01T15:31:19;13.50;55.40
48978;DHT22;34793;48.940;2.618;2023-03-01T15:33:45;13.50;55.20
48978;DHT22;34793;48.940;2.618;2023-03-01T15:38:57;13.50;55.20
48978;DHT22;34793;48.940;2.618;2023-03-01T15:41:37;13.40;55.50
48978;DHT22;34793;48.940;2.618;2023-03-01T15:47:07;13.30;55.80
48978;DHT22;34793;48.940;2.618;2023-03-01T15:49:42;13.40;55.60
48978;DHT22;34793;48.940;2.618;2023-03-01T15:52:10;13.30;55.50
48978;DHT22;34793;48.940;2.618;2023-03-01T15:54:38;13.30;55.60
48978;DHT22;34793;48.940;2.618;2023-03-01T15:57:08;13.30;55.70
48978;DHT22;34793;48.940;2.618;2023-03-01T15:59:36;13.40;55.70
48978;DHT22;34793;48.940;2.618;2023-03-01T16:02:01;13.10;55.90
48978;DHT22;34793;48.940;2.618;2023-03-01T16:04:27;13.10;56.40
48978;DHT22;34793;48.940;2.618;2023-03-01T16:06:53;13.10;55.90
48978;DHT22;34793;48.940;2.618;2023-03-01T16:09:22;13.10;56.70
48978;DHT22;34793;48.940;2.618;2023-03-01T16:11:48;13.00;56.70
48978;DHT22;34793;48.940;2.618;2023-03-01T16:14:14;13.00;56.20
48978;DHT22;34793;48.940;2.618;2023-03-01T16:16:40;13.10;56.20
48978;DHT22;34793;48.940;2.618;2023-03-01T16:19:05;12.80;56.40
48978;DHT22;34793;48.940;2.618;2023-03-01T16:21:31;12.90;56.60
48978;DHT22;34793;48.940;2.618;2023-03-01T16:23:56;12.80;56.50
48978;DHT22;34793;48.940;2.618;2023-03-01T16:26:22;12.60;57.00
48978;DHT22;34793;48.940;2.618;2023-03-01T16:28:47;12.50;57.10
48978;DHT22;34793;48.940;2.618;2023-03-01T16:31:15;12.40;57.60
48978;DHT22;34793;48.940;2.618;2023-03-01T16:33:41;12.40;57.70
48978;DHT22;34793;48.940;2.618;2023-03-01T16:36:11;12.40;57.50
48978;DHT22;34793;48.940;2.618;2023-03-01T16:38:37;12.40;57.30
48978;DHT22;34793;48.940;2.618;2023-03-01T16:41:03;12.30;57.40
48978;DHT22;34793;48.940;2.618;2023-03-01T16:43:29;12.40;57.20
48978;DHT22;34793;48.940;2.618;2023-03-01T16:45:54;12.20;57.80
48978;DHT22;34793;48.940;2.618;2023-03-01T16:48:20;12.50;58.00
48978;DHT22;34793;48.940;2.618;2023-03-01T16:50:45;12.10;57.90
48978;DHT22;34793;48.940;2.618;2023-03-01T16:53:20;12.20;57.90
48978;DHT22;34793;48.940;2.618;2023-03-01T16:55:52;12.30;57.50
48978;DHT22;34793;48.940;2.618;2023-03-01T16:58:17;12.20;57.00
48978;DHT22;34793;48.940;2.618;2023-03-01T17:00:43;12.00;57.30
48978;DHT22;34793;48.940;2.618;2023-03-01T17:03:08;12.10;57.80
48978;DHT22;34793;48.940;2.618;2023-03-01T17:05:34;12.10;57.40
48978;DHT22;34793;48.940;2.618;2023-03-01T17:07:59;12.10;57.20
48978;DHT22;34793;48.940;2.618;2023-03-01T17:10:25;12.10;57.70
48978;DHT22;34793;48.940;2.618;2023-03-01T17:12:51;12.20;57.60
48978;DHT22;34793;48.940;2.618;2023-03-01T17:15:16;12.20;57.30
48978;DHT22;34793;48.940;2.618;2023-03-01T17:17:42;12.20;57.70
48978;DHT22;34793;48.940;2.618;2023-03-01T17:20:08;12.00;57.70
48978;DHT22;34793;48.940;2.618;2023-03-01T17:22:34;11.80;57.80
48978;DHT22;34793;48.940;2.618;2023-03-01T17:25:00;11.60;58.40
48978;DHT22;34793;48.940;2.618;2023-03-01T17:27:25;11.70;58.40
48978;DHT22;34793;48.940;2.618;2023-03-01T17:29:51;11.60;58.30
48978;DHT22;34793;48.940;2.618;2023-03-01T17:32:16;11.60;58.70
48978;DHT22;34793;48.940;2.618;2023-03-01T17:34:42;11.80;58.10
48978;DHT22;34793;48.940;2.618;2023-03-01T17:37:07;12.00;58.30
48978;DHT22;34793;48.940;2.618;2023-03-01T17:39:33;12.10;57.50
48978;DHT22;34793;48.940;2.618;2023-03-01T17:42:01;12.00;57.70
48978;DHT22;34793;48.940;2.618;2023-03-01T17:44:26;12.20;57.90
48978;DHT22;34793;48.940;2.618;2023-03-01T17:46:58;11.90;57.30
48978;DHT22;34793;48.940;2.618;2023-03-01T17:49:24;12.20;57.80
48978;DHT22;34793;48.940;2.618;2023-03-01T17:51:49;12.00;57.00
48978;DHT22;34793;48.940;2.618;2023-03-01T17:54:15;12.10;57.80
48978;DHT22;34793;48.940;2.618;2023-03-01T17:56:41;12.20;57.40
48978;DHT22;34793;48.940;2.618;2023-03-01T17:59:07;12.30;57.60
48978;DHT22;34793;48.940;2.618;2023-03-01T18:04:17;12.40;57.30
48978;DHT22;34793;48.940;2.618;2023-03-01T18:06:44;12.20;57.30
48978;DHT22;34793;48.940;2.618;2023-03-01T18:09:09;12.30;57.30